createdAt,value
2018-12-23T00:02:07.210Z,24.67
2018-12-23T00:04:38.002Z,23.33
2018-12-23T00:07:07.775Z,22.70
2018-12-23T00:09:41.878Z,27.53
2018-12-23T00:12:16.334Z,25.47
2018-12-23T00:14:47.667Z,21.30
2018-12-23T00:17:24.506Z,23.70
2018-12-23T00:19:57.982Z,30.60
2018-12-23T00:22:30.890Z,27.33
2018-12-23T00:25:03.219Z,23.73
2018-12-23T00:27:33.470Z,25.63
2018-12-23T00:30:04.120Z,34.37
2018-12-23T00:32:33.954Z,25.30
2018-12-23T00:35:04.935Z,30.40
2018-12-23T00:37:35.122Z,34.77
2018-12-23T00:40:04.874Z,29.17
2018-12-23T00:42:34.599Z,30.53
2018-12-23T00:45:04.051Z,34.30
2018-12-23T00:47:36.076Z,33.63
2018-12-23T00:50:08.548Z,28.33
2018-12-23T00:52:38.384Z,38.57
2018-12-23T00:55:09.370Z,37.30
2018-12-23T00:57:42.129Z,32.10
2018-12-23T01:00:12.435Z,33.33
2018-12-23T01:02:41.670Z,40.90
2018-12-23T01:05:11.039Z,34.73
2018-12-23T01:07:41.641Z,35.27
2018-12-23T01:10:11.942Z,31.90
2018-12-23T01:12:42.584Z,29.60
2018-12-23T01:15:12.036Z,34.97
2018-12-23T01:17:42.723Z,29.70
2018-12-23T01:20:12.192Z,32.97
2018-12-23T01:22:41.601Z,35.17
2018-12-23T01:25:13.565Z,31.90
2018-12-23T01:27:43.640Z,27.10
2018-12-23T01:30:14.872Z,32.50
2018-12-23T01:32:46.079Z,34.40
2018-12-23T01:35:16.718Z,37.20
2018-12-23T01:37:47.997Z,40.53
2018-12-23T01:40:20.336Z,28.57
2018-12-23T01:42:49.535Z,37.93
2018-12-23T01:45:19.247Z,38.53
2018-12-23T01:47:48.532Z,35.87
2018-12-23T01:50:18.758Z,34.43
2018-12-23T01:52:48.618Z,34.93
2018-12-23T01:55:18.538Z,41.30
2018-12-23T01:57:49.474Z,40.97
2018-12-23T02:00:18.831Z,44.53
2018-12-23T02:02:48.689Z,35.80
2018-12-23T02:05:20.305Z,35.73
2018-12-23T02:07:50.943Z,35.23
2018-12-23T02:10:23.440Z,34.90
2018-12-23T02:12:54.462Z,40.60
2018-12-23T02:15:23.709Z,40.93
2018-12-23T02:17:54.127Z,34.27
2018-12-23T02:20:24.684Z,36.07
2018-12-23T02:22:59.801Z,36.97
2018-12-23T02:25:29.126Z,32.93
2018-12-23T02:28:01.499Z,36.73
2018-12-23T02:30:32.527Z,33.00
2018-12-23T02:33:01.893Z,37.60
2018-12-23T02:35:31.801Z,34.80
2018-12-23T02:38:04.084Z,41.87
2018-12-23T02:40:33.279Z,40.97
2018-12-23T02:43:02.556Z,36.80
2018-12-23T02:45:37.452Z,44.00
2018-12-23T02:48:09.928Z,37.80
2018-12-23T02:50:44.495Z,33.87
2018-12-23T02:53:18.704Z,37.07
2018-12-23T02:55:54.155Z,34.60
2018-12-23T02:58:25.982Z,39.50
2018-12-23T03:00:58.764Z,34.40
2018-12-23T03:03:29.211Z,46.20
2018-12-23T03:06:05.709Z,34.90
2018-12-23T03:08:33.953Z,37.77
2018-12-23T03:11:03.779Z,40.27
2018-12-23T03:13:34.015Z,45.77
2018-12-23T03:16:04.845Z,43.23
2018-12-23T03:18:35.996Z,41.37
2018-12-23T03:21:06.048Z,39.53
2018-12-23T03:23:35.284Z,38.83
2018-12-23T03:26:05.283Z,39.10
2018-12-23T03:28:35.083Z,41.17
2018-12-23T03:31:05.123Z,44.97
2018-12-23T03:33:34.343Z,43.53
2018-12-23T03:36:04.591Z,49.13
2018-12-23T03:38:34.403Z,39.33
2018-12-23T03:41:04.299Z,41.63
2018-12-23T03:43:34.621Z,44.20
2018-12-23T03:46:03.950Z,39.77
2018-12-23T03:48:34.807Z,44.50
2018-12-23T03:51:05.539Z,31.60
2018-12-23T03:53:34.761Z,37.70
2018-12-23T03:56:05.602Z,38.90
2018-12-23T03:58:38.819Z,38.17
2018-12-23T04:01:11.131Z,38.43
2018-12-23T04:03:41.822Z,38.70
2018-12-23T04:06:24.443Z,40.43
2018-12-23T04:08:54.580Z,46.67
2018-12-23T04:11:25.967Z,36.93
2018-12-23T04:13:59.226Z,34.80
2018-12-23T04:16:31.900Z,40.53
2018-12-23T04:19:01.430Z,37.70
2018-12-23T04:21:30.639Z,34.47
2018-12-23T04:24:00.902Z,38.20
2018-12-23T04:26:30.868Z,36.57
2018-12-23T04:29:03.093Z,43.87
2018-12-23T04:31:32.345Z,44.17
2018-12-23T04:34:02.410Z,41.27
2018-12-23T04:41:57.476Z,37.63
2018-12-23T04:44:47.963Z,35.03
2018-12-23T04:47:20.020Z,38.50
2018-12-23T04:49:59.669Z,35.60
2018-12-23T04:52:33.279Z,35.57
2018-12-23T04:55:10.823Z,35.93
2018-12-23T04:57:45.063Z,41.23
2018-12-23T05:00:19.530Z,46.30
2018-12-23T05:02:52.274Z,38.20
2018-12-23T05:05:25.798Z,43.17
2018-12-23T05:07:56.558Z,41.90
2018-12-23T05:10:33.074Z,30.37
2018-12-23T05:13:10.471Z,39.10
2018-12-23T05:15:43.787Z,41.87
2018-12-23T05:18:21.388Z,28.43
2018-12-23T05:20:54.885Z,35.47
2018-12-23T05:23:30.722Z,38.03
2018-12-23T05:26:04.097Z,35.87
2018-12-23T05:28:37.073Z,30.73
2018-12-23T05:31:10.193Z,34.93
2018-12-23T05:33:45.622Z,39.63
2018-12-23T05:36:24.582Z,45.43
2018-12-23T05:38:58.889Z,34.60
2018-12-23T05:41:33.342Z,30.10
2018-12-23T05:44:06.505Z,29.83
2018-12-23T05:46:44.739Z,25.27
2018-12-23T05:49:21.032Z,38.07
2018-12-23T05:51:53.896Z,35.50
2018-12-23T05:54:25.443Z,29.23
2018-12-23T05:56:57.611Z,32.47
2018-12-23T05:59:31.728Z,27.87
2018-12-23T06:02:05.209Z,34.27
2018-12-23T06:04:58.093Z,31.10
2018-12-23T06:07:35.665Z,31.93
2018-12-23T06:10:19.082Z,35.30
2018-12-23T06:12:57.939Z,27.73
2018-12-23T06:15:31.207Z,30.37
2018-12-23T06:18:10.455Z,26.50
2018-12-23T06:20:42.813Z,36.43
2018-12-23T06:23:16.227Z,27.80
2018-12-23T06:25:48.886Z,28.10
2018-12-23T06:28:19.934Z,30.27
2018-12-23T06:30:57.019Z,27.77
2018-12-23T06:33:27.759Z,28.00
2018-12-23T06:36:00.266Z,27.50
2018-12-23T06:38:31.683Z,33.07
2018-12-23T06:41:04.491Z,30.47
2018-12-23T06:43:37.784Z,28.77
2018-12-23T06:46:17.073Z,26.83
2018-12-23T06:48:49.395Z,27.90
2018-12-23T06:51:20.746Z,25.40
2018-12-23T06:53:53.514Z,33.40
2018-12-23T06:56:27.335Z,27.03
2018-12-23T06:59:08.569Z,26.50
2018-12-23T07:01:45.723Z,32.13
2018-12-23T07:04:20.657Z,22.97
2018-12-23T07:06:54.730Z,29.03
2018-12-23T07:09:30.918Z,26.77
2018-12-23T07:12:04.655Z,27.33
2018-12-23T07:14:38.272Z,31.80
2018-12-23T07:17:20.111Z,24.70
2018-12-23T07:19:51.741Z,29.27
2018-12-23T07:22:31.068Z,29.17
2018-12-23T07:25:02.826Z,27.90
2018-12-23T07:27:36.076Z,29.17
2018-12-23T07:30:16.951Z,26.83
2018-12-23T07:32:51.501Z,33.13
2018-12-23T07:35:24.648Z,25.07
2018-12-23T07:38:12.250Z,32.33
2018-12-23T07:40:44.802Z,28.37
2018-12-23T07:43:28.852Z,31.43
2018-12-23T07:46:02.494Z,23.83
2018-12-23T07:48:38.924Z,28.90
2018-12-23T07:51:14.706Z,21.17
2018-12-23T07:53:51.371Z,22.00
2018-12-23T07:56:23.644Z,20.23
2018-12-23T07:59:06.238Z,22.93
2018-12-23T08:01:40.576Z,19.23
2018-12-23T08:04:23.309Z,25.77
2018-12-23T08:07:07.793Z,29.70
2018-12-23T08:09:45.575Z,22.37
2018-12-23T08:12:16.761Z,21.03
2018-12-23T08:14:50.486Z,22.07
2018-12-23T08:17:21.862Z,18.30
2018-12-23T08:19:56.626Z,21.87
2018-12-23T08:22:30.248Z,22.67
2018-12-23T08:25:04.019Z,25.93
2018-12-23T08:27:39.378Z,23.33
2018-12-23T08:30:16.073Z,22.77
2018-12-23T08:32:51.452Z,19.90
2018-12-23T08:35:23.053Z,23.03
2018-12-23T08:38:02.012Z,26.37
2018-12-23T08:40:37.103Z,21.53
2018-12-23T08:43:10.831Z,20.07
2018-12-23T08:45:46.842Z,18.17
2018-12-23T08:48:23.208Z,24.47
2018-12-23T08:50:56.617Z,23.40
2018-12-23T08:53:32.525Z,19.23
2018-12-23T08:56:04.562Z,17.13
2018-12-23T08:58:36.042Z,21.20
2018-12-23T09:01:07.499Z,15.53
2018-12-23T09:03:41.607Z,18.30
2018-12-23T09:06:17.486Z,26.43
2018-12-23T09:08:51.751Z,16.67
2018-12-23T09:11:27.797Z,20.07
2018-12-23T09:14:04.564Z,16.90
2018-12-23T09:16:42.925Z,21.47
2018-12-23T09:19:18.174Z,23.40
2018-12-23T09:21:51.337Z,16.63
2018-12-23T09:24:25.889Z,15.67
2018-12-23T09:27:03.900Z,15.37
2018-12-23T09:29:36.568Z,22.20
2018-12-23T09:32:07.561Z,17.37
2018-12-23T09:34:39.289Z,19.33
2018-12-23T09:37:16.006Z,20.07
2018-12-23T09:39:53.667Z,17.63
2018-12-23T09:42:29.152Z,24.00
2018-12-23T09:45:04.005Z,20.60
2018-12-23T09:47:37.171Z,15.73
2018-12-23T09:50:09.580Z,13.73
2018-12-23T09:52:41.621Z,17.60
2018-12-23T09:55:12.324Z,17.73
2018-12-23T09:57:46.384Z,15.27
2018-12-23T10:00:21.028Z,12.17
2018-12-23T10:02:53.319Z,16.47
2018-12-23T10:05:29.036Z,13.83
2018-12-23T10:08:09.921Z,18.07
2018-12-23T10:10:38.445Z,10.27
2018-12-23T10:13:39.245Z,19.97
2018-12-23T10:16:12.634Z,18.40
2018-12-23T10:18:43.675Z,17.80
2018-12-23T10:21:21.389Z,18.10
2018-12-23T10:23:54.862Z,14.57
2018-12-23T10:26:28.092Z,20.83
2018-12-23T10:29:01.686Z,14.17
2018-12-23T10:31:36.108Z,16.03
2018-12-23T10:34:09.286Z,18.47
2018-12-23T10:36:43.885Z,17.67
2018-12-23T10:39:23.517Z,17.70
2018-12-23T10:41:55.224Z,19.53
2018-12-23T10:44:28.220Z,17.67
2018-12-23T10:46:59.382Z,21.20
2018-12-23T10:49:35.018Z,16.23
2018-12-23T10:52:06.655Z,23.63
2018-12-23T10:54:40.489Z,17.67
2018-12-23T10:57:14.140Z,17.87
2018-12-23T10:59:49.515Z,19.20
2018-12-23T11:02:25.618Z,19.33
2018-12-23T11:04:59.354Z,18.83
2018-12-23T11:07:30.512Z,19.30
2018-12-23T11:10:07.119Z,20.00
2018-12-23T11:12:40.310Z,19.87
2018-12-23T11:15:13.163Z,19.40
2018-12-23T11:18:00.401Z,22.80
2018-12-23T11:20:34.351Z,25.40
2018-12-23T11:23:12.351Z,15.43
2018-12-23T11:25:45.096Z,20.80
2018-12-23T11:28:18.437Z,20.17
2018-12-23T11:30:50.773Z,24.97
2018-12-23T11:33:22.338Z,24.07
2018-12-23T11:35:59.306Z,22.13
2018-12-23T11:38:37.226Z,18.77
2018-12-23T11:41:15.014Z,19.53
2018-12-23T11:43:47.667Z,22.17
2018-12-23T11:46:24.696Z,26.30
2018-12-23T11:48:59.992Z,26.03
2018-12-23T11:51:40.504Z,25.23
2018-12-23T11:54:27.269Z,24.83
2018-12-23T11:56:59.193Z,16.57
2018-12-23T11:59:49.574Z,15.63
2018-12-23T12:02:22.336Z,23.93
2018-12-23T12:04:56.425Z,21.23
2018-12-23T12:07:29.675Z,27.17
2018-12-23T12:10:03.273Z,26.60
2018-12-23T12:12:42.997Z,24.10
2018-12-23T12:15:18.473Z,22.90
2018-12-23T12:17:54.504Z,14.53
2018-12-23T12:20:28.074Z,20.60
2018-12-23T12:23:04.301Z,17.37
2018-12-23T12:25:40.959Z,14.73
2018-12-23T12:28:14.972Z,15.93
2018-12-23T12:30:51.237Z,13.60
2018-12-23T12:33:23.244Z,14.70
2018-12-23T12:35:58.102Z,15.43
2018-12-23T12:38:33.280Z,15.90
2018-12-23T12:41:05.952Z,69.50
2018-12-23T12:43:43.544Z,97.47
2018-12-23T12:46:17.893Z,19.97
2018-12-23T12:48:51.365Z,15.90
2018-12-23T12:51:27.346Z,84.70
2018-12-23T12:54:03.708Z,27.53
2018-12-23T12:56:37.020Z,22.70
2018-12-23T12:59:11.910Z,18.77
2018-12-23T13:01:48.636Z,18.27
2018-12-23T13:04:22.840Z,18.23
2018-12-23T13:06:57.530Z,13.10
2018-12-23T13:09:29.800Z,19.63
2018-12-23T13:12:01.780Z,18.43
2018-12-23T13:14:35.154Z,19.13
2018-12-23T13:17:08.652Z,13.30
2018-12-23T13:19:40.325Z,15.07
2018-12-23T13:22:14.541Z,15.03
2018-12-23T13:24:59.937Z,19.93
2018-12-23T13:27:36.461Z,11.80
2018-12-23T13:30:10.558Z,9.93
2018-12-23T13:32:41.903Z,14.03
2018-12-23T13:35:15.633Z,11.30
2018-12-23T13:37:48.464Z,10.83
2018-12-23T13:40:44.694Z,12.47
2018-12-23T13:43:48.712Z,11.33
2018-12-23T13:46:55.594Z,11.43
2018-12-23T13:50:07.047Z,17.63
2018-12-23T13:53:18.688Z,19.47
2018-12-23T13:56:41.401Z,15.37
2018-12-23T13:59:41.687Z,17.07
2018-12-23T14:02:31.305Z,15.67
2018-12-23T14:05:28.424Z,11.90
2018-12-23T14:08:27.070Z,18.70
2018-12-23T14:11:23.844Z,17.33
2018-12-23T14:13:55.067Z,16.67
2018-12-23T14:16:31.685Z,17.00
2018-12-23T14:19:07.933Z,17.43
2018-12-23T14:21:44.201Z,17.97
2018-12-23T14:24:36.645Z,17.80
2018-12-23T14:27:13.975Z,18.10
2018-12-23T14:29:57.437Z,15.37
2018-12-23T14:32:35.324Z,16.13
2018-12-23T14:35:15.335Z,16.93
2018-12-23T14:37:56.095Z,18.17
2018-12-23T14:40:46.308Z,16.30
2018-12-23T14:43:18.405Z,17.07
2018-12-23T14:45:56.108Z,19.33
2018-12-23T14:48:31.900Z,17.67
2018-12-23T14:51:04.491Z,16.40
2018-12-23T14:53:36.560Z,13.50
2018-12-23T14:56:10.489Z,18.97
2018-12-23T14:58:47.416Z,16.13
2018-12-23T15:01:20.324Z,15.87
2018-12-23T15:03:56.229Z,17.97
2018-12-23T15:06:33.265Z,18.73
2018-12-23T15:09:09.800Z,24.50
2018-12-23T15:11:45.451Z,17.57
2018-12-23T15:14:18.674Z,21.80
2018-12-23T15:16:54.700Z,18.57
2018-12-23T15:19:27.295Z,48.57
2018-12-23T15:21:58.898Z,22.97
2018-12-23T15:24:37.490Z,15.17
2018-12-23T15:27:10.358Z,14.77
2018-12-23T15:29:45.319Z,13.87
2018-12-23T15:32:16.058Z,19.70
2018-12-23T15:34:49.692Z,17.60
2018-12-23T15:37:23.983Z,14.63
2018-12-23T15:39:59.623Z,17.67
2018-12-23T15:42:51.880Z,14.00
2018-12-23T15:45:34.376Z,13.77
2018-12-23T15:48:08.776Z,15.17
2018-12-23T15:50:41.129Z,15.97
2018-12-23T15:53:14.066Z,12.10
2018-12-23T15:55:46.443Z,13.20
2018-12-23T15:58:19.760Z,12.53
2018-12-23T16:00:52.439Z,12.00
2018-12-23T16:03:24.017Z,10.67
2018-12-23T16:05:58.914Z,12.50
2018-12-23T16:08:34.046Z,12.27
2018-12-23T16:11:05.449Z,17.20
2018-12-23T16:13:36.242Z,9.70
2018-12-23T16:16:07.010Z,16.10
2018-12-23T16:18:39.658Z,9.60
2018-12-23T16:21:13.833Z,8.37
2018-12-23T16:24:06.689Z,12.50
2018-12-23T16:26:48.314Z,11.10
2018-12-23T16:29:23.722Z,8.30
2018-12-23T16:32:00.368Z,9.83
2018-12-23T16:37:34.814Z,10.80
2018-12-23T16:40:11.315Z,13.27
2018-12-23T16:42:43.057Z,7.67
2018-12-23T16:45:15.860Z,10.60
2018-12-23T16:47:52.430Z,14.77
2018-12-23T16:50:23.723Z,13.23
2018-12-23T16:53:01.704Z,11.40
2018-12-23T16:55:37.746Z,13.20
2018-12-23T16:58:10.978Z,8.77
2018-12-23T17:00:45.890Z,14.63
2018-12-23T17:03:31.747Z,9.67
2018-12-23T17:06:06.443Z,9.93
2018-12-23T17:08:48.026Z,9.27
2018-12-23T17:11:23.339Z,8.90
2018-12-23T17:14:00.156Z,12.80
2018-12-23T17:16:36.411Z,8.73
2018-12-23T17:19:18.412Z,11.27
2018-12-23T17:21:58.346Z,8.97
2018-12-23T17:24:33.194Z,9.87
2018-12-23T17:27:06.445Z,14.20
2018-12-23T17:29:47.149Z,10.57
2018-12-23T17:32:25.294Z,10.50
2018-12-23T17:34:57.161Z,10.90
2018-12-23T17:37:31.643Z,10.00
2018-12-23T17:40:16.413Z,9.57
2018-12-23T17:42:49.107Z,11.87
2018-12-23T17:45:27.396Z,10.27
2018-12-23T17:48:02.075Z,8.93
2018-12-23T17:50:35.939Z,9.53
2018-12-23T17:53:33.261Z,9.67
2018-12-23T17:56:50.078Z,9.83
2018-12-23T17:59:25.921Z,10.23
2018-12-23T18:02:02.081Z,10.53
2018-12-23T18:04:34.882Z,13.30
2018-12-23T18:07:17.200Z,11.27
2018-12-23T18:09:51.379Z,11.67
2018-12-23T18:12:24.091Z,11.30
2018-12-23T18:14:55.880Z,14.40
2018-12-23T18:17:28.106Z,11.93
2018-12-23T18:20:03.481Z,11.63
2018-12-23T18:22:41.569Z,13.93
2018-12-23T18:25:22.356Z,12.27
2018-12-23T18:27:55.506Z,12.50
2018-12-23T18:30:29.855Z,12.03
2018-12-23T18:33:05.843Z,13.80
2018-12-23T18:35:37.491Z,16.33
2018-12-23T18:38:14.572Z,16.83
2018-12-23T18:40:50.104Z,13.37
2018-12-23T18:43:22.504Z,13.67
2018-12-23T18:46:14.773Z,14.57
2018-12-23T18:48:55.399Z,14.43
2018-12-23T18:51:37.464Z,15.07
2018-12-23T18:54:12.353Z,15.40
2018-12-23T18:56:47.237Z,14.27
2018-12-23T18:59:20.453Z,16.53
2018-12-23T19:02:05.955Z,22.97
2018-12-23T19:04:41.195Z,22.60
2018-12-23T19:07:17.795Z,18.97
2018-12-23T19:10:41.734Z,19.23
2018-12-23T19:13:58.478Z,20.80
2018-12-23T19:17:09.359Z,16.47
2018-12-23T19:20:05.350Z,15.73
2018-12-23T19:23:44.123Z,16.73
2018-12-23T19:26:47.287Z,14.10
2018-12-23T19:30:04.714Z,14.13
2018-12-23T19:33:08.559Z,15.67
2018-12-23T19:36:19.093Z,15.00
2018-12-23T19:39:24.749Z,16.47
2018-12-23T19:42:44.863Z,14.30
2018-12-23T19:46:03.518Z,13.83
2018-12-23T19:49:11.834Z,13.40
2018-12-23T19:52:35.813Z,10.80
2018-12-23T19:55:56.000Z,12.67
2018-12-23T19:59:44.485Z,12.13
2018-12-23T20:02:44.071Z,10.80
2018-12-23T20:05:59.699Z,11.23
2018-12-23T20:09:30.380Z,10.20
2018-12-23T20:12:52.159Z,8.17
2018-12-23T20:15:57.977Z,8.53
2018-12-23T20:19:26.290Z,9.23
2018-12-23T20:22:26.553Z,7.57
2018-12-23T20:25:19.096Z,8.03
2018-12-23T20:28:28.922Z,8.07
2018-12-23T20:31:35.327Z,6.47
2018-12-23T20:35:08.933Z,6.90
2018-12-23T20:38:16.386Z,7.50
2018-12-23T20:41:33.952Z,4.73
2018-12-23T20:44:32.730Z,4.60
2018-12-23T20:47:38.185Z,4.63
2018-12-23T20:50:52.099Z,3.33
2018-12-23T20:54:20.976Z,5.23
2018-12-23T20:57:36.433Z,4.57
2018-12-23T21:01:06.949Z,5.57
2018-12-23T21:04:20.998Z,4.07
2018-12-23T21:07:47.750Z,3.43
2018-12-23T21:11:16.001Z,3.80
2018-12-23T21:14:46.267Z,3.90
2018-12-23T21:18:08.154Z,5.10
2018-12-23T21:21:18.016Z,6.40
2018-12-23T21:24:44.270Z,6.40
2018-12-23T21:27:53.002Z,8.70
2018-12-23T21:31:02.342Z,7.27
2018-12-23T21:34:16.266Z,6.70
2018-12-23T21:37:33.927Z,8.33
2018-12-23T21:40:58.645Z,8.03
2018-12-23T21:44:07.537Z,8.40
2018-12-23T21:47:35.079Z,8.47
2018-12-23T21:50:37.205Z,7.97
2018-12-23T21:54:04.973Z,7.43
2018-12-23T21:57:20.265Z,7.77
2018-12-23T22:00:27.251Z,6.67
2018-12-23T22:03:58.202Z,9.40
2018-12-23T22:07:23.391Z,5.87
2018-12-23T22:10:21.508Z,6.10
2018-12-23T22:13:25.946Z,4.23
2018-12-23T22:15:59.616Z,3.03
2018-12-23T22:18:44.443Z,3.13
2018-12-23T22:21:23.214Z,5.87
2018-12-23T22:23:59.687Z,4.17
2018-12-23T22:26:38.313Z,4.07
2018-12-23T22:29:13.447Z,4.87
2018-12-23T22:31:45.571Z,6.00
2018-12-23T22:34:24.598Z,6.30
2018-12-23T22:37:00.145Z,6.57
2018-12-23T22:39:38.977Z,6.17
2018-12-23T22:42:11.554Z,6.57
2018-12-23T22:44:47.359Z,6.13
2018-12-23T22:47:18.607Z,6.70
2018-12-23T22:49:56.478Z,7.10
2018-12-23T22:52:30.461Z,7.23
2018-12-23T22:55:26.347Z,8.80
2018-12-23T22:58:01.963Z,7.30
2018-12-23T23:00:35.110Z,8.33
2018-12-23T23:03:09.502Z,8.40
2018-12-23T23:05:54.118Z,10.73
2018-12-23T23:08:25.926Z,8.90
2018-12-23T23:10:57.740Z,8.20
2018-12-23T23:13:36.010Z,4.13
2018-12-23T23:16:17.766Z,3.97
2018-12-23T23:18:54.339Z,4.10
2018-12-23T23:21:35.707Z,4.00
2018-12-23T23:24:09.750Z,3.40
2018-12-23T23:26:42.557Z,9.07
2018-12-23T23:29:18.683Z,5.00
2018-12-23T23:31:53.962Z,4.87
2018-12-23T23:34:31.950Z,7.47
2018-12-23T23:37:05.716Z,4.80
2018-12-23T23:39:37.416Z,7.40
2018-12-23T23:42:13.065Z,7.13
2018-12-23T23:44:47.550Z,6.70
2018-12-23T23:47:21.888Z,7.40
2018-12-23T23:50:03.277Z,6.53
2018-12-23T23:52:37.083Z,9.23
2018-12-23T23:55:12.190Z,7.30
2018-12-23T23:57:44.887Z,8.90
